sensor_id;sensor_type;location;lat;lon;timestamp;pressure;altitude;pressure_sealevel;temperature;humidity
51237;BME280;37312;47.550;18.818;2022-07-10T00:02:12;99241.56;;;17.21;81.93
51237;BME280;37312;47.550;18.818;2022-07-10T00:04:38;99232.31;;;17.17;82.67
51237;BME280;37312;47.550;18.818;2022-07-10T00:07:03;99218.72;;;17.12;83.49
51237;BME280;37312;47.550;18.818;2022-07-10T00:09:29;99222.22;;;17.13;83.60
51237;BME280;37312;47.550;18.818;2022-07-10T00:11:56;99216.25;;;17.00;84.61
51237;BME280;37312;47.550;18.818;2022-07-10T00:14:21;99220.34;;;17.03;85.28
51237;BME280;37312;47.550;18.818;2022-07-10T00:16:47;99227.69;;;16.97;85.49
51237;BME280;37312;47.550;18.818;2022-07-10T00:19:13;99224.97;;;16.92;86.07
51237;BME280;37312;47.550;18.818;2022-07-10T00:21:38;99221.44;;;16.92;86.40
51237;BME280;37312;47.550;18.818;2022-07-10T00:24:04;99232.03;;;16.83;87.04
51237;BME280;37312;47.550;18.818;2022-07-10T00:26:30;99222.78;;;16.84;87.45
51237;BME280;37312;47.550;18.818;2022-07-10T00:28:56;99219.75;;;16.75;88.45
51237;BME280;37312;47.550;18.818;2022-07-10T00:31:22;99215.41;;;16.69;89.50
51237;BME280;37312;47.550;18.818;2022-07-10T00:33:47;99213.50;;;16.70;90.02
51237;BME280;37312;47.550;18.818;2022-07-10T00:36:14;99206.16;;;16.65;90.75
51237;BME280;37312;47.550;18.818;2022-07-10T00:38:39;99200.44;;;16.61;91.46
51237;BME280;37312;47.550;18.818;2022-07-10T00:41:05;99205.06;;;16.61;91.87
51237;BME280;37312;47.550;18.818;2022-07-10T00:43:50;99208.34;;;16.58;92.52
51237;BME280;37312;47.550;18.818;2022-07-10T00:46:16;99201.53;;;16.55;92.97
51237;BME280;37312;47.550;18.818;2022-07-10T00:48:46;99190.94;;;16.49;93.74
51237;BME280;37312;47.550;18.818;2022-07-10T00:51:12;99194.97;;;16.46;94.35
51237;BME280;37312;47.550;18.818;2022-07-10T00:53:38;99195.53;;;16.48;94.77
51237;BME280;37312;47.550;18.818;2022-07-10T00:56:04;99202.31;;;16.40;95.96
51237;BME280;37312;47.550;18.818;2022-07-10T00:58:30;99198.25;;;16.43;96.09
51237;BME280;37312;47.550;18.818;2022-07-10T01:00:56;99198.00;;;16.39;96.56
51237;BME280;37312;47.550;18.818;2022-07-10T01:03:22;99203.69;;;16.38;96.76
51237;BME280;37312;47.550;18.818;2022-07-10T01:05:48;99199.31;;;16.37;97.13
51237;BME280;37312;47.550;18.818;2022-07-10T01:08:13;99186.00;;;16.30;97.72
51237;BME280;37312;47.550;18.818;2022-07-10T01:10:39;99196.31;;;16.23;98.27
51237;BME280;37312;47.550;18.818;2022-07-10T01:13:05;99197.12;;;16.18;98.72
51237;BME280;37312;47.550;18.818;2022-07-10T01:15:32;99190.31;;;16.21;98.74
51237;BME280;37312;47.550;18.818;2022-07-10T01:17:58;99191.16;;;16.21;98.74
51237;BME280;37312;47.550;18.818;2022-07-10T01:20:29;99202.00;;;16.16;98.98
51237;BME280;37312;47.550;18.818;2022-07-10T01:22:55;99193.03;;;16.11;99.40
51237;BME280;37312;47.550;18.818;2022-07-10T01:25:21;99196.56;;;16.06;99.66
51237;BME280;37312;47.550;18.818;2022-07-10T01:27:47;99201.44;;;15.99;100.00
51237;BME280;37312;47.550;18.818;2022-07-10T01:30:13;99198.13;;;15.92;100.00
51237;BME280;37312;47.550;18.818;2022-07-10T01:32:39;99189.16;;;15.86;100.00
51237;BME280;37312;47.550;18.818;2022-07-10T01:35:05;99181.53;;;15.83;100.00
51237;BME280;37312;47.550;18.818;2022-07-10T01:37:31;99183.97;;;15.84;100.00
51237;BME280;37312;47.550;18.818;2022-07-10T01:39:57;99186.72;;;15.90;100.00
51237;BME280;37312;47.550;18.818;2022-07-10T01:42:22;99188.84;;;15.82;100.00
51237;BME280;37312;47.550;18.818;2022-07-10T01:44:48;99167.66;;;15.74;100.00
51237;BME280;37312;47.550;18.818;2022-07-10T01:47:14;99169.25;;;15.70;100.00
51237;BME280;37312;47.550;18.818;2022-07-10T01:49:40;99171.94;;;15.65;100.00
51237;BME280;37312;47.550;18.818;2022-07-10T01:52:06;99169.47;;;15.63;100.00
51237;BME280;37312;47.550;18.818;2022-07-10T01:54:31;99160.22;;;15.54;100.00
51237;BME280;37312;47.550;18.818;2022-07-10T01:56:57;99162.69;;;15.61;100.00
51237;BME280;37312;47.550;18.818;2022-07-10T01:59:26;99156.16;;;15.57;100.00
51237;BME280;37312;47.550;18.818;2022-07-10T02:01:52;99164.78;;;15.49;100.00
51237;BME280;37312;47.550;18.818;2022-07-10T02:04:17;99167.25;;;15.50;100.00
51237;BME280;37312;47.550;18.818;2022-07-10T02:07:02;99173.78;;;15.49;100.00
51237;BME280;37312;47.550;18.818;2022-07-10T02:09:28;99170.75;;;15.46;100.00
51237;BME280;37312;47.550;18.818;2022-07-10T02:11:53;99161.50;;;15.41;100.00
51237;BME280;37312;47.550;18.818;2022-07-10T02:14:19;99161.50;;;15.41;100.00
51237;BME280;37312;47.550;18.818;2022-07-10T02:16:45;99169.38;;;15.43;100.00
51237;BME280;37312;47.550;18.818;2022-07-10T02:19:11;99169.38;;;15.38;100.00
51237;BME280;37312;47.550;18.818;2022-07-10T02:21:36;99160.63;;;15.31;100.00
51237;BME280;37312;47.550;18.818;2022-07-10T02:24:02;99164.44;;;15.30;100.00
51237;BME280;37312;47.550;18.818;2022-07-10T02:26:28;99158.44;;;15.22;100.00
51237;BME280;37312;47.550;18.818;2022-07-10T02:28:54;99162.22;;;15.21;100.00
51237;BME280;37312;47.550;18.818;2022-07-10T02:31:19;99161.38;;;15.16;100.00
51237;BME280;37312;47.550;18.818;2022-07-10T02:33:45;99161.34;;;15.11;100.00
51237;BME280;37312;47.550;18.818;2022-07-10T02:36:11;99164.63;;;15.13;100.00
51237;BME280;37312;47.550;18.818;2022-07-10T02:38:37;99161.03;;;15.02;100.00
51237;BME280;37312;47.550;18.818;2022-07-10T02:41:03;99167.44;;;14.91;100.00
51237;BME280;37312;47.550;18.818;2022-07-10T02:43:28;99170.37;;;14.84;100.00
51237;BME280;37312;47.550;18.818;2022-07-10T02:45:54;99168.28;;;14.96;100.00
51237;BME280;37312;47.550;18.818;2022-07-10T02:48:20;99169.63;;;14.94;100.00
51237;BME280;37312;47.550;18.818;2022-07-10T02:50:45;99178.56;;;14.89;100.00
51237;BME280;37312;47.550;18.818;2022-07-10T02:53:11;99177.72;;;14.84;100.00
51237;BME280;37312;47.550;18.818;2022-07-10T02:55:37;99174.16;;;14.83;100.00
51237;BME280;37312;47.550;18.818;2022-07-10T02:58:03;99165.47;;;14.81;100.00
51237;BME280;37312;47.550;18.818;2022-07-10T03:00:29;99166.53;;;14.75;100.00
51237;BME280;37312;47.550;18.818;2022-07-10T03:02:54;99160.53;;;14.73;100.00
51237;BME280;37312;47.550;18.818;2022-07-10T03:05:21;99157.25;;;14.66;100.00
51237;BME280;37312;47.550;18.818;2022-07-10T03:07:46;99164.94;;;14.79;100.00
51237;BME280;37312;47.550;18.818;2022-07-10T03:10:12;99163.78;;;14.70;100.00
51237;BME280;37312;47.550;18.818;2022-07-10T03:12:38;99166.75;;;14.68;100.00
51237;BME280;37312;47.550;18.818;2022-07-10T03:15:04;99165.41;;;14.71;100.00
51237;BME280;37312;47.550;18.818;2022-07-10T03:17:31;99162.94;;;14.69;100.00
51237;BME280;37312;47.550;18.818;2022-07-10T03:19:56;99159.09;;;14.65;100.00
51237;BME280;37312;47.550;18.818;2022-07-10T03:22:22;99147.69;;;14.58;100.00
51237;BME280;37312;47.550;18.818;2022-07-10T03:24:48;99147.03;;;14.51;100.00
51237;BME280;37312;47.550;18.818;2022-07-10T03:27:14;99151.72;;;14.55;100.00
51237;BME280;37312;47.550;18.818;2022-07-10T03:29:40;99141.38;;;14.52;100.00
51237;BME280;37312;47.550;18.818;2022-07-10T03:32:06;99138.19;;;14.60;100.00
51237;BME280;37312;47.550;18.818;2022-07-10T03:34:32;99132.28;;;14.64;100.00
51237;BME280;37312;47.550;18.818;2022-07-10T03:36:59;99134.97;;;14.58;100.00
51237;BME280;37312;47.550;18.818;2022-07-10T03:39:26;99133.56;;;14.56;100.00
51237;BME280;37312;47.550;18.818;2022-07-10T03:41:52;99134.31;;;14.51;100.00
51237;BME280;37312;47.550;18.818;2022-07-10T03:44:17;99131.03;;;14.49;100.00
51237;BME280;37312;47.550;18.818;2022-07-10T03:46:43;99139.69;;;14.46;100.00
51237;BME280;37312;47.550;18.818;2022-07-10T03:49:09;99138.28;;;14.38;100.00
51237;BME280;37312;47.550;18.818;2022-07-10T03:51:35;99142.63;;;14.39;100.00
51237;BME280;37312;47.550;18.818;2022-07-10T03:54:01;99139.13;;;14.44;100.00
51237;BME280;37312;47.550;18.818;2022-07-10T03:56:26;99140.25;;;14.48;100.00
51237;BME280;37312;47.550;18.818;2022-07-10T03:59:15;99140.81;;;14.50;100.00
51237;BME280;37312;47.550;18.818;2022-07-10T04:01:41;99136.97;;;14.46;100.00
51237;BME280;37312;47.550;18.818;2022-07-10T04:04:06;99133.22;;;14.47;100.00
51237;BME280;37312;47.550;18.818;2022-07-10T04:06:32;99130.78;;;14.51;100.00
51237;BME280;37312;47.550;18.818;2022-07-10T04:08:58;99118.41;;;14.60;100.00
51237;BME280;37312;47.550;18.818;2022-07-10T04:11:24;99127.88;;;14.57;100.00
51237;BME280;37312;47.550;18.818;2022-07-10T04:13:49;99127.41;;;14.66;100.00
51237;BME280;37312;47.550;18.818;2022-07-10T04:16:15;99125.84;;;14.75;100.00
51237;BME280;37312;47.550;18.818;2022-07-10T04:18:41;99135.62;;;14.81;100.00
51237;BME280;37312;47.550;18.818;2022-07-10T04:21:07;99124.63;;;14.93;100.00
51237;BME280;37312;47.550;18.818;2022-07-10T04:23:33;99131.97;;;14.97;100.00
51237;BME280;37312;47.550;18.818;2022-07-10T04:25:59;99124.44;;;15.10;100.00
51237;BME280;37312;47.550;18.818;2022-07-10T04:28:25;99129.88;;;15.10;100.00
51237;BME280;37312;47.550;18.818;2022-07-10T04:30:51;99121.78;;;15.20;100.00
51237;BME280;37312;47.550;18.818;2022-07-10T04:33:16;99121.56;;;15.32;100.00
51237;BME280;37312;47.550;18.818;2022-07-10T04:35:42;99116.44;;;15.35;100.00
51237;BME280;37312;47.550;18.818;2022-07-10T04:38:08;99106.66;;;15.39;100.00
51237;BME280;37312;47.550;18.818;2022-07-10T04:40:34;99113.19;;;15.33;100.00
51237;BME280;37312;47.550;18.818;2022-07-10T04:43:00;99117.00;;;15.42;100.00
51237;BME280;37312;47.550;18.818;2022-07-10T04:45:26;99111.59;;;15.48;100.00
51237;BME280;37312;47.550;18.818;2022-07-10T04:47:51;99114.31;;;15.53;100.00
51237;BME280;37312;47.550;18.818;2022-07-10T04:50:17;99114.06;;;15.49;100.00
51237;BME280;37312;47.550;18.818;2022-07-10T04:52:43;99099.44;;;15.60;100.00
51237;BME280;37312;47.550;18.818;2022-07-10T04:55:09;99097.88;;;15.75;100.00
51237;BME280;37312;47.550;18.818;2022-07-10T04:57:35;99103.59;;;15.83;100.00
51237;BME280;37312;47.550;18.818;2022-07-10T05:00:00;99100.88;;;15.94;100.00
51237;BME280;37312;47.550;18.818;2022-07-10T05:02:26;99105.81;;;16.12;100.00
51237;BME280;37312;47.550;18.818;2022-07-10T05:04:52;99103.13;;;16.33;100.00
51237;BME280;37312;47.550;18.818;2022-07-10T05:07:18;99111.25;;;16.89;100.00
51237;BME280;37312;47.550;18.818;2022-07-10T05:09:43;99115.84;;;17.84;97.27
51237;BME280;37312;47.550;18.818;2022-07-10T05:12:09;99121.97;;;18.74;91.79
51237;BME280;37312;47.550;18.818;2022-07-10T05:14:35;99111.28;;;19.36;85.50
51237;BME280;37312;47.550;18.818;2022-07-10T05:17:00;99108.72;;;19.21;85.63
51237;BME280;37312;47.550;18.818;2022-07-10T05:19:26;99114.12;;;19.02;86.66
51237;BME280;37312;47.550;18.818;2022-07-10T05:21:52;99113.66;;;18.60;87.75
51237;BME280;37312;47.550;18.818;2022-07-10T05:24:18;99114.12;;;18.67;88.67
51237;BME280;37312;47.550;18.818;2022-07-10T05:26:43;99105.25;;;18.57;88.38
51237;BME280;37312;47.550;18.818;2022-07-10T05:29:09;99108.44;;;18.64;87.69
51237;BME280;37312;47.550;18.818;2022-07-10T05:31:35;99105.09;;;18.38;88.61
51237;BME280;37312;47.550;18.818;2022-07-10T05:34:01;99102.06;;;18.73;88.47
51237;BME280;37312;47.550;18.818;2022-07-10T05:36:26;99106.06;;;19.10;86.75
51237;BME280;37312;47.550;18.818;2022-07-10T05:38:52;99100.78;;;19.19;83.71
51237;BME280;37312;47.550;18.818;2022-07-10T05:41:18;99096.94;;;19.44;82.75
51237;BME280;37312;47.550;18.818;2022-07-10T05:43:43;99082.00;;;19.61;81.39
51237;BME280;37312;47.550;18.818;2022-07-10T05:46:09;99086.31;;;20.05;79.07
51237;BME280;37312;47.550;18.818;2022-07-10T05:48:35;99079.59;;;19.78;78.97
51237;BME280;37312;47.550;18.818;2022-07-10T05:51:01;99076.59;;;20.31;77.85
51237;BME280;37312;47.550;18.818;2022-07-10T05:53:26;99076.63;;;19.93;78.27
51237;BME280;37312;47.550;18.818;2022-07-10T05:55:52;99077.97;;;19.77;79.29
51237;BME280;37312;47.550;18.818;2022-07-10T05:58:18;99078.34;;;19.70;79.60
51237;BME280;37312;47.550;18.818;2022-07-10T06:00:44;99074.06;;;19.83;79.93
51237;BME280;37312;47.550;18.818;2022-07-10T06:03:11;99079.66;;;19.92;80.05
51237;BME280;37312;47.550;18.818;2022-07-10T06:05:37;99084.84;;;19.93;78.44
51237;BME280;37312;47.550;18.818;2022-07-10T06:08:03;99083.88;;;20.22;77.23
51237;BME280;37312;47.550;18.818;2022-07-10T06:10:29;99079.59;;;20.95;75.21
51237;BME280;37312;47.550;18.818;2022-07-10T06:12:55;99080.16;;;21.89;70.76
51237;BME280;37312;47.550;18.818;2022-07-10T06:15:21;99083.91;;;22.16;67.74
51237;BME280;37312;47.550;18.818;2022-07-10T06:17:47;99077.88;;;22.73;66.34
51237;BME280;37312;47.550;18.818;2022-07-10T06:20:12;99088.13;;;23.78;61.99
51237;BME280;37312;47.550;18.818;2022-07-10T06:22:38;99080.84;;;24.26;60.08
51237;BME280;37312;47.550;18.818;2022-07-10T06:25:06;99077.94;;;25.04;55.69
51237;BME280;37312;47.550;18.818;2022-07-10T06:27:32;99085.28;;;24.91;55.93
51237;BME280;37312;47.550;18.818;2022-07-10T06:29:59;99085.44;;;25.33;54.91
51237;BME280;37312;47.550;18.818;2022-07-10T06:32:25;99092.09;;;26.46;51.25
51237;BME280;37312;47.550;18.818;2022-07-10T06:34:51;99094.22;;;26.07;50.60
51237;BME280;37312;47.550;18.818;2022-07-10T06:37:17;99088.47;;;25.02;54.86
51237;BME280;37312;47.550;18.818;2022-07-10T06:39:43;99086.50;;;25.50;54.05
51237;BME280;37312;47.550;18.818;2022-07-10T06:42:10;99085.31;;;26.77;50.08
51237;BME280;37312;47.550;18.818;2022-07-10T06:44:36;99096.75;;;27.12;48.23
51237;BME280;37312;47.550;18.818;2022-07-10T06:47:02;99092.06;;;27.50;45.66
51237;BME280;37312;47.550;18.818;2022-07-10T06:49:46;99097.47;;;27.09;45.66
51237;BME280;37312;47.550;18.818;2022-07-10T06:52:13;99089.03;;;27.18;45.40
51237;BME280;37312;47.550;18.818;2022-07-10T06:54:39;99087.97;;;26.52;46.16
51237;BME280;37312;47.550;18.818;2022-07-10T06:57:05;99096.03;;;26.78;45.76
51237;BME280;37312;47.550;18.818;2022-07-10T06:59:31;99091.06;;;27.30;45.02
51237;BME280;37312;47.550;18.818;2022-07-10T07:01:56;99087.13;;;28.08;42.69
51237;BME280;37312;47.550;18.818;2022-07-10T07:04:22;99086.50;;;27.86;43.96
51237;BME280;37312;47.550;18.818;2022-07-10T07:06:48;99087.09;;;28.20;43.55
51237;BME280;37312;47.550;18.818;2022-07-10T07:09:13;99077.88;;;28.44;42.22
51237;BME280;37312;47.550;18.818;2022-07-10T07:11:39;99083.25;;;28.81;40.91
51237;BME280;37312;47.550;18.818;2022-07-10T07:14:05;99079.41;;;29.02;40.68
51237;BME280;37312;47.550;18.818;2022-07-10T07:16:30;99074.38;;;28.76;38.46
51237;BME280;37312;47.550;18.818;2022-07-10T07:19:04;99073.50;;;28.87;38.77
51237;BME280;37312;47.550;18.818;2022-07-10T07:21:31;99075.91;;;28.89;38.68
51237;BME280;37312;47.550;18.818;2022-07-10T07:24:16;99071.06;;;28.70;38.49
51237;BME280;37312;47.550;18.818;2022-07-10T07:26:44;99075.66;;;29.10;38.22
51237;BME280;37312;47.550;18.818;2022-07-10T07:29:12;99073.44;;;29.31;37.00
51237;BME280;37312;47.550;18.818;2022-07-10T07:31:38;99074.22;;;29.83;35.69
51237;BME280;37312;47.550;18.818;2022-07-10T07:34:04;99064.47;;;29.06;36.65
51237;BME280;37312;47.550;18.818;2022-07-10T07:36:30;99073.28;;;28.64;36.85
51237;BME280;37312;47.550;18.818;2022-07-10T07:38:56;99077.72;;;27.72;38.60
51237;BME280;37312;47.550;18.818;2022-07-10T07:41:22;99077.69;;;28.65;37.86
51237;BME280;37312;47.550;18.818;2022-07-10T07:43:48;99069.41;;;29.29;36.57
51237;BME280;37312;47.550;18.818;2022-07-10T07:46:14;99074.91;;;30.16;34.55
51237;BME280;37312;47.550;18.818;2022-07-10T07:48:40;99073.09;;;30.66;32.99
51237;BME280;37312;47.550;18.818;2022-07-10T07:51:06;99065.59;;;29.88;34.49
51237;BME280;37312;47.550;18.818;2022-07-10T07:53:32;99077.59;;;30.12;34.56
51237;BME280;37312;47.550;18.818;2022-07-10T07:55:57;99072.44;;;30.72;32.97
51237;BME280;37312;47.550;18.818;2022-07-10T07:58:23;99073.63;;;30.29;33.28
51237;BME280;37312;47.550;18.818;2022-07-10T08:00:49;99069.97;;;30.67;32.76
51237;BME280;37312;47.550;18.818;2022-07-10T08:03:15;99072.28;;;32.14;30.80
51237;BME280;37312;47.550;18.818;2022-07-10T08:05:41;99071.97;;;31.63;30.20
51237;BME280;37312;47.550;18.818;2022-07-10T08:08:07;99071.22;;;31.16;30.37
51237;BME280;37312;47.550;18.818;2022-07-10T08:10:34;99059.03;;;30.78;31.18
51237;BME280;37312;47.550;18.818;2022-07-10T08:13:00;99072.63;;;30.83;31.32
51237;BME280;37312;47.550;18.818;2022-07-10T08:15:26;99070.50;;;31.72;29.25
51237;BME280;37312;47.550;18.818;2022-07-10T08:17:53;99066.84;;;32.29;29.10
51237;BME280;37312;47.550;18.818;2022-07-10T08:20:19;99072.66;;;31.86;29.94
51237;BME280;37312;47.550;18.818;2022-07-10T08:22:45;99065.09;;;31.30;29.77
51237;BME280;37312;47.550;18.818;2022-07-10T08:25:12;99072.31;;;29.68;31.98
51237;BME280;37312;47.550;18.818;2022-07-10T08:27:38;99065.72;;;28.77;32.40
51237;BME280;37312;47.550;18.818;2022-07-10T08:30:04;99057.75;;;28.76;32.99
51237;BME280;37312;47.550;18.818;2022-07-10T08:32:30;99067.97;;;29.19;33.39
51237;BME280;37312;47.550;18.818;2022-07-10T08:34:56;99069.97;;;29.70;32.00
51237;BME280;37312;47.550;18.818;2022-07-10T08:37:23;99062.78;;;30.86;29.77
51237;BME280;37312;47.550;18.818;2022-07-10T08:39:49;99075.75;;;31.01;30.24
51237;BME280;37312;47.550;18.818;2022-07-10T08:42:15;99082.34;;;31.66;29.12
51237;BME280;37312;47.550;18.818;2022-07-10T08:44:41;99066.28;;;31.06;29.86
51237;BME280;37312;47.550;18.818;2022-07-10T08:47:07;99064.63;;;31.01;29.48
51237;BME280;37312;47.550;18.818;2022-07-10T08:49:33;99058.41;;;31.11;29.55
51237;BME280;37312;47.550;18.818;2022-07-10T08:54:30;99065.03;;;31.26;28.60
51237;BME280;37312;47.550;18.818;2022-07-10T08:56:56;99050.00;;;30.62;28.97
51237;BME280;37312;47.550;18.818;2022-07-10T08:59:22;99063.41;;;28.95;31.27
51237;BME280;37312;47.550;18.818;2022-07-10T09:01:48;99054.94;;;29.20;30.80
51237;BME280;37312;47.550;18.818;2022-07-10T09:04:18;99049.44;;;29.75;31.03
51237;BME280;37312;47.550;18.818;2022-07-10T09:06:44;99050.06;;;29.01;33.20
51237;BME280;37312;47.550;18.818;2022-07-10T09:09:10;99053.25;;;28.55;32.75
51237;BME280;37312;47.550;18.818;2022-07-10T09:11:40;99054.97;;;28.60;32.56
51237;BME280;37312;47.550;18.818;2022-07-10T09:14:08;99046.72;;;28.47;31.72
51237;BME280;37312;47.550;18.818;2022-07-10T09:16:35;99053.69;;;28.13;32.83
51237;BME280;37312;47.550;18.818;2022-07-10T09:19:14;99045.97;;;29.26;30.88
51237;BME280;37312;47.550;18.818;2022-07-10T09:21:40;99046.66;;;29.07;32.11
51237;BME280;37312;47.550;18.818;2022-07-10T09:24:07;99046.13;;;29.02;33.39
51237;BME280;37312;47.550;18.818;2022-07-10T09:26:33;99053.19;;;28.39;35.25
51237;BME280;37312;47.550;18.818;2022-07-10T09:29:10;99059.56;;;27.59;35.87
51237;BME280;37312;47.550;18.818;2022-07-10T09:31:56;99072.16;;;28.09;35.59
51237;BME280;37312;47.550;18.818;2022-07-10T09:34:34;99060.66;;;27.82;34.78
51237;BME280;37312;47.550;18.818;2022-07-10T09:39:58;99050.13;;;27.35;36.49
51237;BME280;37312;47.550;18.818;2022-07-10T09:42:33;99050.56;;;26.76;36.88
51237;BME280;37312;47.550;18.818;2022-07-10T09:47:44;99050.47;;;27.09;35.57
51237;BME280;37312;47.550;18.818;2022-07-10T09:52:52;99040.66;;;26.99;36.20
51237;BME280;37312;47.550;18.818;2022-07-10T09:55:22;99023.94;;;27.57;35.08
51237;BME280;37312;47.550;18.818;2022-07-10T09:58:06;99039.38;;;27.58;34.48
51237;BME280;37312;47.550;18.818;2022-07-10T10:00:36;99028.34;;;27.34;33.67
51237;BME280;37312;47.550;18.818;2022-07-10T10:03:06;99030.34;;;27.21;35.47
51237;BME280;37312;47.550;18.818;2022-07-10T10:05:39;99033.06;;;26.96;33.89
51237;BME280;37312;47.550;18.818;2022-07-10T10:10:37;99018.78;;;26.36;36.55
51237;BME280;37312;47.550;18.818;2022-07-10T10:13:06;99020.47;;;26.29;36.08
51237;BME280;37312;47.550;18.818;2022-07-10T10:15:34;99010.69;;;25.98;34.25
51237;BME280;37312;47.550;18.818;2022-07-10T10:18:00;99011.47;;;26.19;36.48
51237;BME280;37312;47.550;18.818;2022-07-10T10:20:27;99011.50;;;26.32;34.74
51237;BME280;37312;47.550;18.818;2022-07-10T10:23:05;99017.81;;;26.66;34.26
51237;BME280;37312;47.550;18.818;2022-07-10T10:25:34;99017.72;;;26.74;33.55
51237;BME280;37312;47.550;18.818;2022-07-10T10:28:01;99010.47;;;26.36;34.31
51237;BME280;37312;47.550;18.818;2022-07-10T10:30:28;99003.94;;;26.41;34.69
51237;BME280;37312;47.550;18.818;2022-07-10T10:32:55;98998.69;;;26.48;34.79
51237;BME280;37312;47.550;18.818;2022-07-10T10:38:05;98993.91;;;26.36;35.18
51237;BME280;37312;47.550;18.818;2022-07-10T10:40:31;98992.31;;;26.35;37.06
51237;BME280;37312;47.550;18.818;2022-07-10T10:45:43;98987.28;;;26.50;37.38
51237;BME280;37312;47.550;18.818;2022-07-10T10:48:09;98988.94;;;26.30;36.89
51237;BME280;37312;47.550;18.818;2022-07-10T10:50:48;98983.22;;;25.89;36.69
51237;BME280;37312;47.550;18.818;2022-07-10T10:55:41;98992.38;;;26.14;36.46
51237;BME280;37312;47.550;18.818;2022-07-10T10:58:16;98982.75;;;26.33;35.83
51237;BME280;37312;47.550;18.818;2022-07-10T11:00:43;98989.69;;;26.39;35.74
51237;BME280;37312;47.550;18.818;2022-07-10T11:03:27;98992.19;;;26.32;34.03
51237;BME280;37312;47.550;18.818;2022-07-10T11:05:53;98987.22;;;25.29;35.96
51237;BME280;37312;47.550;18.818;2022-07-10T11:08:37;98988.75;;;24.79;37.13
51237;BME280;37312;47.550;18.818;2022-07-10T11:14:08;99001.19;;;25.24;38.04
51237;BME280;37312;47.550;18.818;2022-07-10T11:16:34;99001.97;;;24.56;39.08
51237;BME280;37312;47.550;18.818;2022-07-10T11:19:00;99018.56;;;24.04;40.83
51237;BME280;37312;47.550;18.818;2022-07-10T11:21:26;99015.16;;;23.81;43.28
51237;BME280;37312;47.550;18.818;2022-07-10T11:24:06;99022.62;;;23.05;42.46
51237;BME280;37312;47.550;18.818;2022-07-10T11:29:09;99028.13;;;23.05;43.55
51237;BME280;37312;47.550;18.818;2022-07-10T11:31:34;99016.75;;;23.38;43.00
51237;BME280;37312;47.550;18.818;2022-07-10T11:34:05;99018.66;;;23.38;43.16
51237;BME280;37312;47.550;18.818;2022-07-10T11:36:33;99022.22;;;23.47;44.23
51237;BME280;37312;47.550;18.818;2022-07-10T11:39:02;99021.59;;;23.50;44.04
51237;BME280;37312;47.550;18.818;2022-07-10T11:41:28;99018.37;;;23.48;43.28
51237;BME280;37312;47.550;18.818;2022-07-10T11:43:57;99029.38;;;23.57;43.56
51237;BME280;37312;47.550;18.818;2022-07-10T11:46:24;99013.69;;;23.66;43.84
51237;BME280;37312;47.550;18.818;2022-07-10T11:48:51;99010.50;;;23.81;41.87
51237;BME280;37312;47.550;18.818;2022-07-10T11:51:40;99009.47;;;23.68;38.92
51237;BME280;37312;47.550;18.818;2022-07-10T11:54:06;99014.97;;;23.51;39.23
51237;BME280;37312;47.550;18.818;2022-07-10T11:56:32;99012.38;;;23.46;38.52
51237;BME280;37312;47.550;18.818;2022-07-10T11:59:00;99009.47;;;23.68;38.29
51237;BME280;37312;47.550;18.818;2022-07-10T12:01:26;99008.81;;;23.63;37.93
51237;BME280;37312;47.550;18.818;2022-07-10T12:03:54;99016.72;;;23.29;38.87
51237;BME280;37312;47.550;18.818;2022-07-10T12:06:21;99008.16;;;23.40;37.40
51237;BME280;37312;47.550;18.818;2022-07-10T12:08:48;99008.81;;;23.63;38.62
51237;BME280;37312;47.550;18.818;2022-07-10T12:11:14;99005.31;;;23.80;38.38
51237;BME280;37312;47.550;18.818;2022-07-10T12:13:41;98997.19;;;24.01;37.75
51237;BME280;37312;47.550;18.818;2022-07-10T12:16:06;98998.91;;;24.49;39.57
51237;BME280;37312;47.550;18.818;2022-07-10T12:18:32;98995.63;;;24.55;38.65
51237;BME280;37312;47.550;18.818;2022-07-10T12:20:59;98998.75;;;24.28;36.90
51237;BME280;37312;47.550;18.818;2022-07-10T12:23:26;99003.66;;;24.05;38.08
51237;BME280;37312;47.550;18.818;2022-07-10T12:25:53;99007.22;;;24.23;37.82
51237;BME280;37312;47.550;18.818;2022-07-10T12:28:20;99012.69;;;24.40;37.87
51237;BME280;37312;47.550;18.818;2022-07-10T12:30:46;99015.41;;;24.49;36.92
51237;BME280;37312;47.550;18.818;2022-07-10T12:33:15;99011.13;;;24.69;36.14
51237;BME280;37312;47.550;18.818;2022-07-10T12:36:00;99014.31;;;24.88;37.45
51237;BME280;37312;47.550;18.818;2022-07-10T12:38:26;99008.22;;;24.74;36.41
51237;BME280;37312;47.550;18.818;2022-07-10T12:41:08;99012.59;;;24.75;37.72
51237;BME280;37312;47.550;18.818;2022-07-10T12:43:34;99014.56;;;24.66;37.85
51237;BME280;37312;47.550;18.818;2022-07-10T12:46:13;99014.56;;;24.66;38.61
51237;BME280;37312;47.550;18.818;2022-07-10T12:51:28;99026.63;;;24.26;38.88
51237;BME280;37312;47.550;18.818;2022-07-10T12:53:54;99025.69;;;23.96;39.98
51237;BME280;37312;47.550;18.818;2022-07-10T12:56:36;99019.19;;;23.83;40.09
51237;BME280;37312;47.550;18.818;2022-07-10T12:59:04;99028.38;;;24.48;40.43
51237;BME280;37312;47.550;18.818;2022-07-10T13:01:43;99021.81;;;25.09;36.61
51237;BME280;37312;47.550;18.818;2022-07-10T13:04:09;99021.91;;;24.91;35.75
51237;BME280;37312;47.550;18.818;2022-07-10T13:06:37;99021.09;;;24.52;37.38
51237;BME280;37312;47.550;18.818;2022-07-10T13:09:03;99022.25;;;24.25;36.93
51237;BME280;37312;47.550;18.818;2022-07-10T13:11:43;99023.16;;;24.55;37.46
51237;BME280;37312;47.550;18.818;2022-07-10T13:14:08;99024.75;;;24.74;37.30
51237;BME280;37312;47.550;18.818;2022-07-10T13:16:34;99021.00;;;24.79;37.75
51237;BME280;37312;47.550;18.818;2022-07-10T13:19:00;99009.66;;;25.10;37.12